sensor_id;sensor_type;location;lat;lon;timestamp;P1;durP1;ratioP1;P2;durP2;ratioP2
68942;SDS011;60852;52.190;4.422;2022-08-16T00:02:16;36.16;;;36.16;;
68942;SDS011;60852;52.190;4.422;2022-08-16T00:04:42;36.75;;;36.55;;
68942;SDS011;60852;52.190;4.422;2022-08-16T00:07:07;37.86;;;37.32;;
68942;SDS011;60852;52.190;4.422;2022-08-16T00:09:33;36.30;;;36.29;;
68942;SDS011;60852;52.190;4.422;2022-08-16T00:11:58;37.67;;;37.35;;
68942;SDS011;60852;52.190;4.422;2022-08-16T00:14:26;36.83;;;36.59;;
68942;SDS011;60852;52.190;4.422;2022-08-16T00:16:55;37.83;;;37.56;;
68942;SDS011;60852;52.190;4.422;2022-08-16T00:19:25;37.36;;;37.35;;
68942;SDS011;60852;52.190;4.422;2022-08-16T00:21:53;37.73;;;37.59;;
68942;SDS011;60852;52.190;4.422;2022-08-16T00:24:20;36.93;;;36.89;;
68942;SDS011;60852;52.190;4.422;2022-08-16T00:26:47;36.57;;;36.52;;
68942;SDS011;60852;52.190;4.422;2022-08-16T00:29:14;38.23;;;37.99;;
68942;SDS011;60852;52.190;4.422;2022-08-16T00:31:40;37.17;;;37.04;;
68942;SDS011;60852;52.190;4.422;2022-08-16T00:34:08;37.48;;;37.47;;
68942;SDS011;60852;52.190;4.422;2022-08-16T00:36:33;37.07;;;37.06;;
68942;SDS011;60852;52.190;4.422;2022-08-16T00:38:59;37.19;;;37.19;;
68942;SDS011;60852;52.190;4.422;2022-08-16T00:41:26;37.23;;;37.23;;
68942;SDS011;60852;52.190;4.422;2022-08-16T00:43:53;38.48;;;38.47;;
68942;SDS011;60852;52.190;4.422;2022-08-16T00:46:27;38.51;;;38.51;;
68942;SDS011;60852;52.190;4.422;2022-08-16T00:48:58;38.37;;;38.36;;
68942;SDS011;60852;52.190;4.422;2022-08-16T00:51:25;39.00;;;38.99;;
68942;SDS011;60852;52.190;4.422;2022-08-16T00:53:52;38.56;;;38.56;;
68942;SDS011;60852;52.190;4.422;2022-08-16T00:56:21;39.71;;;39.54;;
68942;SDS011;60852;52.190;4.422;2022-08-16T00:58:50;39.80;;;39.75;;
68942;SDS011;60852;52.190;4.422;2022-08-16T01:01:17;39.60;;;39.39;;
68942;SDS011;60852;52.190;4.422;2022-08-16T01:03:45;39.67;;;39.44;;
68942;SDS011;60852;52.190;4.422;2022-08-16T01:06:14;39.30;;;38.74;;
68942;SDS011;60852;52.190;4.422;2022-08-16T01:08:43;38.53;;;38.42;;
68942;SDS011;60852;52.190;4.422;2022-08-16T01:11:13;37.94;;;37.87;;
68942;SDS011;60852;52.190;4.422;2022-08-16T01:13:39;38.49;;;38.31;;
68942;SDS011;60852;52.190;4.422;2022-08-16T01:18:40;39.09;;;38.95;;
68942;SDS011;60852;52.190;4.422;2022-08-16T01:21:33;40.48;;;39.70;;
68942;SDS011;60852;52.190;4.422;2022-08-16T01:24:07;38.53;;;38.43;;
68942;SDS011;60852;52.190;4.422;2022-08-16T01:26:42;38.90;;;38.51;;
68942;SDS011;60852;52.190;4.422;2022-08-16T01:29:13;38.59;;;38.47;;
68942;SDS011;60852;52.190;4.422;2022-08-16T01:31:44;39.60;;;39.08;;
68942;SDS011;60852;52.190;4.422;2022-08-16T01:34:10;39.50;;;39.09;;
68942;SDS011;60852;52.190;4.422;2022-08-16T01:36:37;39.12;;;38.79;;
68942;SDS011;60852;52.190;4.422;2022-08-16T01:39:07;38.40;;;38.28;;
68942;SDS011;60852;52.190;4.422;2022-08-16T01:41:35;39.15;;;38.68;;
68942;SDS011;60852;52.190;4.422;2022-08-16T01:44:01;38.54;;;38.35;;
68942;SDS011;60852;52.190;4.422;2022-08-16T01:46:34;38.97;;;38.82;;
68942;SDS011;60852;52.190;4.422;2022-08-16T01:49:12;39.22;;;39.11;;
68942;SDS011;60852;52.190;4.422;2022-08-16T01:51:41;38.20;;;38.18;;
68942;SDS011;60852;52.190;4.422;2022-08-16T01:54:11;38.00;;;37.85;;
68942;SDS011;60852;52.190;4.422;2022-08-16T01:56:37;39.23;;;38.96;;
68942;SDS011;60852;52.190;4.422;2022-08-16T01:59:04;39.71;;;39.18;;
68942;SDS011;60852;52.190;4.422;2022-08-16T02:01:32;38.13;;;37.87;;
68942;SDS011;60852;52.190;4.422;2022-08-16T02:03:58;38.48;;;38.34;;
68942;SDS011;60852;52.190;4.422;2022-08-16T02:06:25;40.21;;;39.74;;
68942;SDS011;60852;52.190;4.422;2022-08-16T02:08:51;38.93;;;38.89;;
68942;SDS011;60852;52.190;4.422;2022-08-16T02:11:17;39.26;;;39.23;;
68942;SDS011;60852;52.190;4.422;2022-08-16T02:13:43;37.97;;;37.86;;
68942;SDS011;60852;52.190;4.422;2022-08-16T02:16:10;38.46;;;38.40;;
68942;SDS011;60852;52.190;4.422;2022-08-16T02:18:35;39.23;;;38.93;;
68942;SDS011;60852;52.190;4.422;2022-08-16T02:21:01;39.86;;;38.79;;
68942;SDS011;60852;52.190;4.422;2022-08-16T02:23:29;39.61;;;39.37;;
68942;SDS011;60852;52.190;4.422;2022-08-16T02:25:57;40.24;;;40.11;;
68942;SDS011;60852;52.190;4.422;2022-08-16T02:28:23;38.49;;;38.44;;
68942;SDS011;60852;52.190;4.422;2022-08-16T02:30:51;38.58;;;38.57;;
68942;SDS011;60852;52.190;4.422;2022-08-16T02:33:17;39.35;;;39.04;;
68942;SDS011;60852;52.190;4.422;2022-08-16T02:35:44;37.93;;;37.76;;
68942;SDS011;60852;52.190;4.422;2022-08-16T02:38:10;39.95;;;38.95;;
68942;SDS011;60852;52.190;4.422;2022-08-16T02:40:35;39.02;;;38.63;;
68942;SDS011;60852;52.190;4.422;2022-08-16T02:43:01;38.77;;;38.57;;
68942;SDS011;60852;52.190;4.422;2022-08-16T02:45:26;37.34;;;37.13;;
68942;SDS011;60852;52.190;4.422;2022-08-16T02:47:52;37.86;;;37.79;;
68942;SDS011;60852;52.190;4.422;2022-08-16T02:50:19;38.79;;;38.45;;
68942;SDS011;60852;52.190;4.422;2022-08-16T02:52:45;38.30;;;38.19;;
68942;SDS011;60852;52.190;4.422;2022-08-16T02:55:11;38.30;;;38.00;;
68942;SDS011;60852;52.190;4.422;2022-08-16T02:57:37;37.82;;;37.62;;
68942;SDS011;60852;52.190;4.422;2022-08-16T03:00:03;38.53;;;38.26;;
68942;SDS011;60852;52.190;4.422;2022-08-16T03:02:34;38.48;;;38.37;;
68942;SDS011;60852;52.190;4.422;2022-08-16T03:05:00;39.70;;;39.19;;
68942;SDS011;60852;52.190;4.422;2022-08-16T03:07:26;39.75;;;39.27;;
68942;SDS011;60852;52.190;4.422;2022-08-16T03:09:52;39.02;;;38.25;;
68942;SDS011;60852;52.190;4.422;2022-08-16T03:12:17;38.08;;;38.08;;
68942;SDS011;60852;52.190;4.422;2022-08-16T03:14:44;39.45;;;38.47;;
68942;SDS011;60852;52.190;4.422;2022-08-16T03:17:09;37.52;;;37.13;;
68942;SDS011;60852;52.190;4.422;2022-08-16T03:19:35;35.78;;;35.65;;
68942;SDS011;60852;52.190;4.422;2022-08-16T03:22:01;35.55;;;35.37;;
68942;SDS011;60852;52.190;4.422;2022-08-16T03:24:27;35.77;;;35.74;;
68942;SDS011;60852;52.190;4.422;2022-08-16T03:26:53;35.08;;;35.08;;
68942;SDS011;60852;52.190;4.422;2022-08-16T03:29:19;35.45;;;35.27;;
68942;SDS011;60852;52.190;4.422;2022-08-16T03:31:45;35.22;;;35.05;;
68942;SDS011;60852;52.190;4.422;2022-08-16T03:34:11;35.63;;;35.56;;
68942;SDS011;60852;52.190;4.422;2022-08-16T03:36:36;35.20;;;35.18;;
68942;SDS011;60852;52.190;4.422;2022-08-16T03:39:02;35.73;;;35.69;;
68942;SDS011;60852;52.190;4.422;2022-08-16T03:41:27;34.61;;;34.61;;
68942;SDS011;60852;52.190;4.422;2022-08-16T03:43:53;35.91;;;35.23;;
68942;SDS011;60852;52.190;4.422;2022-08-16T03:46:19;34.72;;;34.45;;
68942;SDS011;60852;52.190;4.422;2022-08-16T03:48:46;33.45;;;33.16;;
68942;SDS011;60852;52.190;4.422;2022-08-16T03:51:13;33.39;;;33.36;;
68942;SDS011;60852;52.190;4.422;2022-08-16T03:53:39;32.76;;;32.76;;
68942;SDS011;60852;52.190;4.422;2022-08-16T03:56:06;32.36;;;32.35;;
68942;SDS011;60852;52.190;4.422;2022-08-16T03:58:32;31.62;;;31.58;;
68942;SDS011;60852;52.190;4.422;2022-08-16T04:00:59;31.64;;;31.63;;
68942;SDS011;60852;52.190;4.422;2022-08-16T04:03:24;31.00;;;31.00;;
68942;SDS011;60852;52.190;4.422;2022-08-16T04:05:50;32.32;;;32.32;;
68942;SDS011;60852;52.190;4.422;2022-08-16T04:08:17;33.04;;;33.03;;
68942;SDS011;60852;52.190;4.422;2022-08-16T04:10:45;32.95;;;32.78;;
68942;SDS011;60852;52.190;4.422;2022-08-16T04:13:11;33.63;;;33.63;;
68942;SDS011;60852;52.190;4.422;2022-08-16T04:15:37;33.50;;;33.50;;
68942;SDS011;60852;52.190;4.422;2022-08-16T04:18:03;33.18;;;33.18;;
68942;SDS011;60852;52.190;4.422;2022-08-16T04:20:30;34.18;;;34.07;;
68942;SDS011;60852;52.190;4.422;2022-08-16T04:22:56;33.31;;;33.31;;
68942;SDS011;60852;52.190;4.422;2022-08-16T04:25:22;33.69;;;33.58;;
68942;SDS011;60852;52.190;4.422;2022-08-16T04:27:48;33.20;;;33.15;;
68942;SDS011;60852;52.190;4.422;2022-08-16T04:30:15;33.61;;;33.60;;
68942;SDS011;60852;52.190;4.422;2022-08-16T04:32:42;33.66;;;33.66;;
68942;SDS011;60852;52.190;4.422;2022-08-16T04:35:10;34.39;;;34.36;;
68942;SDS011;60852;52.190;4.422;2022-08-16T04:37:40;34.26;;;34.16;;
68942;SDS011;60852;52.190;4.422;2022-08-16T04:40:07;34.18;;;34.13;;
68942;SDS011;60852;52.190;4.422;2022-08-16T04:42:34;32.46;;;32.46;;
68942;SDS011;60852;52.190;4.422;2022-08-16T04:45:04;32.64;;;32.63;;
68942;SDS011;60852;52.190;4.422;2022-08-16T04:47:31;33.85;;;33.85;;
68942;SDS011;60852;52.190;4.422;2022-08-16T04:49:57;33.03;;;32.95;;
68942;SDS011;60852;52.190;4.422;2022-08-16T04:52:24;33.14;;;32.95;;
68942;SDS011;60852;52.190;4.422;2022-08-16T04:54:49;32.60;;;32.60;;
68942;SDS011;60852;52.190;4.422;2022-08-16T04:57:14;31.83;;;31.83;;
68942;SDS011;60852;52.190;4.422;2022-08-16T04:59:40;32.79;;;32.79;;
68942;SDS011;60852;52.190;4.422;2022-08-16T05:02:05;31.73;;;31.73;;
68942;SDS011;60852;52.190;4.422;2022-08-16T05:04:31;31.88;;;31.88;;
68942;SDS011;60852;52.190;4.422;2022-08-16T05:06:57;31.44;;;31.44;;
68942;SDS011;60852;52.190;4.422;2022-08-16T05:09:22;31.26;;;31.26;;
68942;SDS011;60852;52.190;4.422;2022-08-16T05:11:48;31.70;;;31.69;;
68942;SDS011;60852;52.190;4.422;2022-08-16T05:14:13;31.50;;;31.50;;
68942;SDS011;60852;52.190;4.422;2022-08-16T05:16:39;30.83;;;30.83;;
68942;SDS011;60852;52.190;4.422;2022-08-16T05:19:05;31.16;;;31.16;;
68942;SDS011;60852;52.190;4.422;2022-08-16T05:21:32;31.79;;;31.79;;
68942;SDS011;60852;52.190;4.422;2022-08-16T05:23:58;30.78;;;30.76;;
68942;SDS011;60852;52.190;4.422;2022-08-16T05:26:25;31.19;;;31.19;;
68942;SDS011;60852;52.190;4.422;2022-08-16T05:28:52;31.43;;;31.29;;
68942;SDS011;60852;52.190;4.422;2022-08-16T05:31:18;31.17;;;31.16;;
68942;SDS011;60852;52.190;4.422;2022-08-16T05:33:44;32.30;;;32.30;;
68942;SDS011;60852;52.190;4.422;2022-08-16T05:36:09;32.88;;;32.88;;
68942;SDS011;60852;52.190;4.422;2022-08-16T05:38:35;32.03;;;32.03;;
68942;SDS011;60852;52.190;4.422;2022-08-16T05:41:01;32.51;;;32.51;;
68942;SDS011;60852;52.190;4.422;2022-08-16T05:43:28;32.89;;;32.89;;
68942;SDS011;60852;52.190;4.422;2022-08-16T05:45:54;33.12;;;33.12;;
68942;SDS011;60852;52.190;4.422;2022-08-16T05:48:22;33.71;;;33.65;;
68942;SDS011;60852;52.190;4.422;2022-08-16T05:50:48;34.26;;;34.26;;
68942;SDS011;60852;52.190;4.422;2022-08-16T05:53:13;34.24;;;34.24;;
68942;SDS011;60852;52.190;4.422;2022-08-16T05:55:39;34.58;;;34.50;;
68942;SDS011;60852;52.190;4.422;2022-08-16T05:58:04;34.66;;;34.66;;
68942;SDS011;60852;52.190;4.422;2022-08-16T06:00:30;36.20;;;36.19;;
68942;SDS011;60852;52.190;4.422;2022-08-16T06:02:55;35.75;;;35.74;;
68942;SDS011;60852;52.190;4.422;2022-08-16T06:05:22;36.68;;;36.68;;
68942;SDS011;60852;52.190;4.422;2022-08-16T06:07:48;37.74;;;37.74;;
68942;SDS011;60852;52.190;4.422;2022-08-16T06:10:14;37.97;;;37.95;;
68942;SDS011;60852;52.190;4.422;2022-08-16T06:12:40;38.54;;;38.54;;
68942;SDS011;60852;52.190;4.422;2022-08-16T06:15:11;38.36;;;38.33;;
68942;SDS011;60852;52.190;4.422;2022-08-16T06:17:41;37.47;;;37.47;;
68942;SDS011;60852;52.190;4.422;2022-08-16T06:20:07;37.57;;;37.57;;
68942;SDS011;60852;52.190;4.422;2022-08-16T06:22:34;39.13;;;39.12;;
68942;SDS011;60852;52.190;4.422;2022-08-16T06:25:01;39.13;;;39.09;;
68942;SDS011;60852;52.190;4.422;2022-08-16T06:27:27;39.04;;;39.01;;
68942;SDS011;60852;52.190;4.422;2022-08-16T06:29:52;38.91;;;38.91;;
68942;SDS011;60852;52.190;4.422;2022-08-16T06:32:18;39.45;;;39.44;;
68942;SDS011;60852;52.190;4.422;2022-08-16T06:34:44;40.27;;;40.14;;
68942;SDS011;60852;52.190;4.422;2022-08-16T06:37:09;40.32;;;40.29;;
68942;SDS011;60852;52.190;4.422;2022-08-16T06:39:35;39.88;;;39.80;;
68942;SDS011;60852;52.190;4.422;2022-08-16T06:42:00;40.09;;;40.08;;
68942;SDS011;60852;52.190;4.422;2022-08-16T06:44:26;41.96;;;41.67;;
68942;SDS011;60852;52.190;4.422;2022-08-16T06:46:51;40.31;;;40.20;;
68942;SDS011;60852;52.190;4.422;2022-08-16T06:49:17;39.87;;;39.86;;
68942;SDS011;60852;52.190;4.422;2022-08-16T06:51:42;39.94;;;39.94;;
68942;SDS011;60852;52.190;4.422;2022-08-16T06:54:08;40.07;;;40.07;;
68942;SDS011;60852;52.190;4.422;2022-08-16T06:56:34;39.93;;;39.88;;
68942;SDS011;60852;52.190;4.422;2022-08-16T06:59:00;39.27;;;38.96;;
68942;SDS011;60852;52.190;4.422;2022-08-16T07:01:26;38.73;;;38.70;;
68942;SDS011;60852;52.190;4.422;2022-08-16T07:03:52;38.00;;;37.99;;
68942;SDS011;60852;52.190;4.422;2022-08-16T07:06:19;38.07;;;38.02;;
68942;SDS011;60852;52.190;4.422;2022-08-16T07:08:46;37.14;;;37.14;;
68942;SDS011;60852;52.190;4.422;2022-08-16T07:11:13;36.96;;;36.95;;
68942;SDS011;60852;52.190;4.422;2022-08-16T07:13:40;36.18;;;36.13;;
68942;SDS011;60852;52.190;4.422;2022-08-16T07:16:07;35.40;;;35.33;;
68942;SDS011;60852;52.190;4.422;2022-08-16T07:18:39;35.59;;;35.57;;
68942;SDS011;60852;52.190;4.422;2022-08-16T07:21:06;36.27;;;36.26;;
68942;SDS011;60852;52.190;4.422;2022-08-16T07:23:34;36.38;;;36.38;;
68942;SDS011;60852;52.190;4.422;2022-08-16T07:26:00;34.31;;;34.31;;
68942;SDS011;60852;52.190;4.422;2022-08-16T07:28:26;33.29;;;33.28;;
68942;SDS011;60852;52.190;4.422;2022-08-16T07:30:51;32.91;;;32.91;;
68942;SDS011;60852;52.190;4.422;2022-08-16T07:33:17;32.68;;;32.68;;
68942;SDS011;60852;52.190;4.422;2022-08-16T07:35:42;32.00;;;32.00;;
68942;SDS011;60852;52.190;4.422;2022-08-16T07:38:09;30.32;;;30.32;;
68942;SDS011;60852;52.190;4.422;2022-08-16T07:40:35;30.52;;;30.49;;
68942;SDS011;60852;52.190;4.422;2022-08-16T07:43:02;29.95;;;29.89;;
68942;SDS011;60852;52.190;4.422;2022-08-16T07:45:28;28.79;;;28.79;;
68942;SDS011;60852;52.190;4.422;2022-08-16T07:47:53;28.97;;;28.97;;
68942;SDS011;60852;52.190;4.422;2022-08-16T07:50:20;28.08;;;28.08;;
68942;SDS011;60852;52.190;4.422;2022-08-16T07:52:46;27.67;;;27.67;;
68942;SDS011;60852;52.190;4.422;2022-08-16T07:55:13;27.79;;;27.79;;
68942;SDS011;60852;52.190;4.422;2022-08-16T07:57:41;26.21;;;26.21;;
68942;SDS011;60852;52.190;4.422;2022-08-16T08:00:07;26.46;;;26.46;;
68942;SDS011;60852;52.190;4.422;2022-08-16T08:02:34;25.90;;;25.90;;
68942;SDS011;60852;52.190;4.422;2022-08-16T08:05:02;23.96;;;23.96;;
68942;SDS011;60852;52.190;4.422;2022-08-16T08:07:28;23.48;;;23.48;;
68942;SDS011;60852;52.190;4.422;2022-08-16T08:09:55;23.50;;;23.50;;
68942;SDS011;60852;52.190;4.422;2022-08-16T08:12:21;23.41;;;23.41;;
68942;SDS011;60852;52.190;4.422;2022-08-16T08:14:47;23.03;;;23.02;;
68942;SDS011;60852;52.190;4.422;2022-08-16T08:17:13;23.98;;;23.98;;
68942;SDS011;60852;52.190;4.422;2022-08-16T08:19:39;24.29;;;24.29;;
68942;SDS011;60852;52.190;4.422;2022-08-16T08:22:05;23.09;;;23.09;;
68942;SDS011;60852;52.190;4.422;2022-08-16T08:24:32;22.65;;;22.65;;
68942;SDS011;60852;52.190;4.422;2022-08-16T08:26:59;22.05;;;22.05;;
68942;SDS011;60852;52.190;4.422;2022-08-16T08:29:26;21.41;;;21.41;;
68942;SDS011;60852;52.190;4.422;2022-08-16T08:31:51;20.92;;;20.92;;
68942;SDS011;60852;52.190;4.422;2022-08-16T08:34:17;21.67;;;21.67;;
68942;SDS011;60852;52.190;4.422;2022-08-16T08:36:43;20.65;;;20.65;;
68942;SDS011;60852;52.190;4.422;2022-08-16T08:39:08;21.45;;;21.45;;
68942;SDS011;60852;52.190;4.422;2022-08-16T08:41:34;21.56;;;21.56;;
68942;SDS011;60852;52.190;4.422;2022-08-16T08:43:59;21.04;;;21.04;;
68942;SDS011;60852;52.190;4.422;2022-08-16T08:46:25;20.39;;;20.39;;
68942;SDS011;60852;52.190;4.422;2022-08-16T08:48:52;21.11;;;21.11;;
68942;SDS011;60852;52.190;4.422;2022-08-16T08:51:20;22.56;;;22.56;;
68942;SDS011;60852;52.190;4.422;2022-08-16T08:53:46;23.46;;;23.46;;
68942;SDS011;60852;52.190;4.422;2022-08-16T08:56:12;25.07;;;25.07;;
68942;SDS011;60852;52.190;4.422;2022-08-16T08:58:38;24.67;;;24.67;;
68942;SDS011;60852;52.190;4.422;2022-08-16T09:01:05;24.91;;;24.91;;
68942;SDS011;60852;52.190;4.422;2022-08-16T09:03:32;25.90;;;25.90;;
68942;SDS011;60852;52.190;4.422;2022-08-16T09:05:59;24.68;;;24.68;;
68942;SDS011;60852;52.190;4.422;2022-08-16T09:08:25;24.95;;;24.95;;
68942;SDS011;60852;52.190;4.422;2022-08-16T09:10:52;25.38;;;25.38;;
68942;SDS011;60852;52.190;4.422;2022-08-16T09:13:20;26.06;;;26.06;;
68942;SDS011;60852;52.190;4.422;2022-08-16T09:15:46;26.12;;;26.12;;
68942;SDS011;60852;52.190;4.422;2022-08-16T09:18:13;26.81;;;26.81;;
68942;SDS011;60852;52.190;4.422;2022-08-16T09:20:40;28.22;;;28.22;;
68942;SDS011;60852;52.190;4.422;2022-08-16T09:23:07;26.16;;;26.16;;
68942;SDS011;60852;52.190;4.422;2022-08-16T09:25:32;25.72;;;25.72;;
68942;SDS011;60852;52.190;4.422;2022-08-16T09:27:59;26.64;;;26.64;;
68942;SDS011;60852;52.190;4.422;2022-08-16T09:30:25;26.94;;;26.94;;
68942;SDS011;60852;52.190;4.422;2022-08-16T09:32:51;25.27;;;25.27;;
68942;SDS011;60852;52.190;4.422;2022-08-16T09:35:19;25.64;;;25.64;;
68942;SDS011;60852;52.190;4.422;2022-08-16T09:37:46;26.26;;;26.26;;
68942;SDS011;60852;52.190;4.422;2022-08-16T09:40:11;25.96;;;25.96;;
68942;SDS011;60852;52.190;4.422;2022-08-16T09:42:37;24.73;;;24.73;;
68942;SDS011;60852;52.190;4.422;2022-08-16T09:45:03;24.04;;;24.04;;
68942;SDS011;60852;52.190;4.422;2022-08-16T09:47:33;23.27;;;23.27;;
68942;SDS011;60852;52.190;4.422;2022-08-16T09:50:06;22.35;;;22.35;;
68942;SDS011;60852;52.190;4.422;2022-08-16T09:52:34;23.03;;;23.03;;
68942;SDS011;60852;52.190;4.422;2022-08-16T09:55:03;21.38;;;21.38;;
68942;SDS011;60852;52.190;4.422;2022-08-16T09:57:29;19.94;;;19.94;;
68942;SDS011;60852;52.190;4.422;2022-08-16T09:59:55;20.38;;;20.38;;
68942;SDS011;60852;52.190;4.422;2022-08-16T10:02:20;20.42;;;20.42;;
68942;SDS011;60852;52.190;4.422;2022-08-16T10:04:48;20.90;;;20.90;;
68942;SDS011;60852;52.190;4.422;2022-08-16T10:07:14;22.02;;;22.02;;
68942;SDS011;60852;52.190;4.422;2022-08-16T10:09:39;21.09;;;21.09;;
68942;SDS011;60852;52.190;4.422;2022-08-16T10:12:05;21.43;;;21.43;;
68942;SDS011;60852;52.190;4.422;2022-08-16T10:14:49;21.40;;;21.40;;
68942;SDS011;60852;52.190;4.422;2022-08-16T10:17:14;21.18;;;21.18;;
68942;SDS011;60852;52.190;4.422;2022-08-16T10:19:41;20.93;;;20.93;;
68942;SDS011;60852;52.190;4.422;2022-08-16T10:22:06;19.79;;;19.79;;
68942;SDS011;60852;52.190;4.422;2022-08-16T10:24:32;20.27;;;20.27;;
68942;SDS011;60852;52.190;4.422;2022-08-16T10:26:58;20.74;;;20.74;;
68942;SDS011;60852;52.190;4.422;2022-08-16T10:29:23;20.57;;;20.57;;
68942;SDS011;60852;52.190;4.422;2022-08-16T10:31:49;19.97;;;19.97;;
68942;SDS011;60852;52.190;4.422;2022-08-16T10:34:14;20.67;;;20.67;;
68942;SDS011;60852;52.190;4.422;2022-08-16T10:36:40;21.37;;;21.37;;
68942;SDS011;60852;52.190;4.422;2022-08-16T10:39:05;21.54;;;21.54;;
68942;SDS011;60852;52.190;4.422;2022-08-16T10:41:32;21.12;;;21.12;;
68942;SDS011;60852;52.190;4.422;2022-08-16T10:43:57;21.58;;;21.58;;
68942;SDS011;60852;52.190;4.422;2022-08-16T10:46:23;21.63;;;21.63;;
68942;SDS011;60852;52.190;4.422;2022-08-16T10:48:49;21.72;;;21.72;;
68942;SDS011;60852;52.190;4.422;2022-08-16T10:51:14;21.84;;;21.84;;
68942;SDS011;60852;52.190;4.422;2022-08-16T10:53:41;20.77;;;20.77;;
68942;SDS011;60852;52.190;4.422;2022-08-16T10:56:08;20.29;;;20.29;;
68942;SDS011;60852;52.190;4.422;2022-08-16T10:58:37;21.59;;;21.59;;
68942;SDS011;60852;52.190;4.422;2022-08-16T11:01:07;22.02;;;22.02;;
68942;SDS011;60852;52.190;4.422;2022-08-16T11:03:34;22.14;;;22.14;;
68942;SDS011;60852;52.190;4.422;2022-08-16T11:06:01;22.49;;;22.49;;
68942;SDS011;60852;52.190;4.422;2022-08-16T11:08:29;22.23;;;22.23;;
68942;SDS011;60852;52.190;4.422;2022-08-16T11:10:55;21.23;;;21.23;;
68942;SDS011;60852;52.190;4.422;2022-08-16T11:13:21;21.51;;;21.51;;
68942;SDS011;60852;52.190;4.422;2022-08-16T11:15:50;21.48;;;21.48;;
68942;SDS011;60852;52.190;4.422;2022-08-16T11:18:16;20.42;;;20.42;;
68942;SDS011;60852;52.190;4.422;2022-08-16T11:20:41;19.53;;;19.53;;
68942;SDS011;60852;52.190;4.422;2022-08-16T11:23:08;19.87;;;19.87;;
68942;SDS011;60852;52.190;4.422;2022-08-16T11:25:35;21.60;;;21.60;;
68942;SDS011;60852;52.190;4.422;2022-08-16T11:28:02;22.13;;;22.13;;
68942;SDS011;60852;52.190;4.422;2022-08-16T11:30:29;21.41;;;21.41;;
68942;SDS011;60852;52.190;4.422;2022-08-16T11:32:55;21.72;;;21.72;;
68942;SDS011;60852;52.190;4.422;2022-08-16T11:35:23;22.31;;;22.31;;
68942;SDS011;60852;52.190;4.422;2022-08-16T11:37:57;22.44;;;22.44;;
68942;SDS011;60852;52.190;4.422;2022-08-16T11:40:26;22.69;;;22.69;;
68942;SDS011;60852;52.190;4.422;2022-08-16T11:42:55;22.89;;;22.89;;
68942;SDS011;60852;52.190;4.422;2022-08-16T11:45:21;21.90;;;21.90;;
68942;SDS011;60852;52.190;4.422;2022-08-16T11:47:47;22.10;;;22.10;;
68942;SDS011;60852;52.190;4.422;2022-08-16T11:50:13;21.12;;;21.12;;
68942;SDS011;60852;52.190;4.422;2022-08-16T11:52:40;21.34;;;21.34;;
68942;SDS011;60852;52.190;4.422;2022-08-16T11:55:06;21.44;;;21.44;;
68942;SDS011;60852;52.190;4.422;2022-08-16T11:57:35;21.30;;;21.30;;
68942;SDS011;60852;52.190;4.422;2022-08-16T12:00:01;21.61;;;21.61;;
68942;SDS011;60852;52.190;4.422;2022-08-16T12:02:30;22.35;;;22.35;;
68942;SDS011;60852;52.190;4.422;2022-08-16T12:04:55;22.16;;;22.16;;
68942;SDS011;60852;52.190;4.422;2022-08-16T12:07:21;22.45;;;22.45;;
68942;SDS011;60852;52.190;4.422;2022-08-16T12:09:47;23.32;;;23.32;;
68942;SDS011;60852;52.190;4.422;2022-08-16T12:12:12;22.64;;;22.64;;
68942;SDS011;60852;52.190;4.422;2022-08-16T12:14:38;22.92;;;22.92;;
68942;SDS011;60852;52.190;4.422;2022-08-16T12:17:04;22.06;;;22.06;;
68942;SDS011;60852;52.190;4.422;2022-08-16T12:19:31;20.82;;;20.82;;
68942;SDS011;60852;52.190;4.422;2022-08-16T12:21:57;21.31;;;21.31;;
68942;SDS011;60852;52.190;4.422;2022-08-16T12:24:23;21.70;;;21.70;;
68942;SDS011;60852;52.190;4.422;2022-08-16T12:26:51;21.17;;;21.17;;
68942;SDS011;60852;52.190;4.422;2022-08-16T12:29:17;21.24;;;21.24;;
68942;SDS011;60852;52.190;4.422;2022-08-16T12:31:43;20.40;;;20.40;;
68942;SDS011;60852;52.190;4.422;2022-08-16T12:34:10;21.25;;;21.25;;
68942;SDS011;60852;52.190;4.422;2022-08-16T12:36:35;21.09;;;21.09;;
68942;SDS011;60852;52.190;4.422;2022-08-16T12:39:03;21.34;;;21.34;;
68942;SDS011;60852;52.190;4.422;2022-08-16T12:41:33;20.62;;;20.62;;
68942;SDS011;60852;52.190;4.422;2022-08-16T12:44:01;20.74;;;20.74;;
68942;SDS011;60852;52.190;4.422;2022-08-16T12:46:28;21.30;;;21.30;;
68942;SDS011;60852;52.190;4.422;2022-08-16T12:48:54;21.58;;;21.58;;
68942;SDS011;60852;52.190;4.422;2022-08-16T12:51:27;21.08;;;21.08;;
68942;SDS011;60852;52.190;4.422;2022-08-16T12:54:00;21.45;;;21.45;;
68942;SDS011;60852;52.190;4.422;2022-08-16T12:56:30;22.06;;;22.06;;
68942;SDS011;60852;52.190;4.422;2022-08-16T12:58:58;21.63;;;21.63;;
68942;SDS011;60852;52.190;4.422;2022-08-16T13:01:30;19.65;;;19.65;;
68942;SDS011;60852;52.190;4.422;2022-08-16T13:03:58;20.97;;;20.97;;
68942;SDS011;60852;52.190;4.422;2022-08-16T13:06:26;19.80;;;19.80;;
68942;SDS011;60852;52.190;4.422;2022-08-16T13:08:53;19.32;;;19.32;;
68942;SDS011;60852;52.190;4.422;2022-08-16T13:11:27;19.78;;;19.78;;
68942;SDS011;60852;52.190;4.422;2022-08-16T13:13:59;18.44;;;18.44;;
68942;SDS011;60852;52.190;4.422;2022-08-16T13:16:25;16.90;;;16.90;;
68942;SDS011;60852;52.190;4.422;2022-08-16T13:18:50;17.35;;;17.35;;
68942;SDS011;60852;52.190;4.422;2022-08-16T13:21:16;18.31;;;18.31;;
68942;SDS011;60852;52.190;4.422;2022-08-16T13:23:41;19.01;;;19.01;;
68942;SDS011;60852;52.190;4.422;2022-08-16T13:26:06;18.53;;;18.53;;
68942;SDS011;60852;52.190;4.422;2022-08-16T13:28:32;18.12;;;18.12;;
68942;SDS011;60852;52.190;4.422;2022-08-16T13:30:58;17.23;;;17.23;;
68942;SDS011;60852;52.190;4.422;2022-08-16T13:33:29;17.49;;;17.49;;
68942;SDS011;60852;52.190;4.422;2022-08-16T13:36:01;17.58;;;17.58;;
68942;SDS011;60852;52.190;4.422;2022-08-16T13:38:33;17.83;;;17.83;;
68942;SDS011;60852;52.190;4.422;2022-08-16T13:40:59;18.90;;;18.90;;
68942;SDS011;60852;52.190;4.422;2022-08-16T13:43:27;18.59;;;18.59;;
68942;SDS011;60852;52.190;4.422;2022-08-16T13:45:55;18.81;;;18.81;;
68942;SDS011;60852;52.190;4.422;2022-08-16T13:48:22;20.07;;;20.07;;
68942;SDS011;60852;52.190;4.422;2022-08-16T13:50:49;20.25;;;20.25;;
68942;SDS011;60852;52.190;4.422;2022-08-16T13:53:14;22.64;;;22.64;;
68942;SDS011;60852;52.190;4.422;2022-08-16T13:55:40;21.35;;;21.35;;
68942;SDS011;60852;52.190;4.422;2022-08-16T13:58:05;21.55;;;21.55;;
68942;SDS011;60852;52.190;4.422;2022-08-16T14:00:31;21.14;;;21.14;;
68942;SDS011;60852;52.190;4.422;2022-08-16T14:02:58;20.57;;;20.57;;
68942;SDS011;60852;52.190;4.422;2022-08-16T14:05:23;20.62;;;20.62;;
68942;SDS011;60852;52.190;4.422;2022-08-16T14:07:49;20.46;;;20.46;;
68942;SDS011;60852;52.190;4.422;2022-08-16T14:10:14;19.97;;;19.97;;
68942;SDS011;60852;52.190;4.422;2022-08-16T14:12:40;20.87;;;20.87;;
68942;SDS011;60852;52.190;4.422;2022-08-16T14:15:06;21.02;;;21.01;;
68942;SDS011;60852;52.190;4.422;2022-08-16T14:17:35;21.15;;;21.15;;
68942;SDS011;60852;52.190;4.422;2022-08-16T14:20:01;22.55;;;22.55;;
68942;SDS011;60852;52.190;4.422;2022-08-16T14:22:28;20.61;;;20.61;;